sensor_id;sensor_type;location;lat;lon;timestamp;P1;durP1;ratioP1;P2;durP2;ratioP2
37485;SDS011;23341;50.296;18.960;2023-02-28T00:00:34;27.67;;;11.13;;
37485;SDS011;23341;50.296;18.960;2023-02-28T00:05:53;27.08;;;10.10;;
37485;SDS011;23341;50.296;18.960;2023-02-28T00:11:00;32.30;;;12.30;;
37485;SDS011;23341;50.296;18.960;2023-02-28T00:16:08;28.10;;;10.98;;
37485;SDS011;23341;50.296;18.960;2023-02-28T00:26:20;24.02;;;10.18;;
37485;SDS011;23341;50.296;18.960;2023-02-28T00:31:25;31.50;;;13.57;;
37485;SDS011;23341;50.296;18.960;2023-02-28T00:36:30;37.65;;;14.95;;
37485;SDS011;23341;50.296;18.960;2023-02-28T00:41:37;27.67;;;11.75;;
37485;SDS011;23341;50.296;18.960;2023-02-28T00:46:43;30.50;;;11.35;;
37485;SDS011;23341;50.296;18.960;2023-02-28T00:51:47;28.02;;;11.23;;
37485;SDS011;23341;50.296;18.960;2023-02-28T00:56:54;28.50;;;11.80;;
37485;SDS011;23341;50.296;18.960;2023-02-28T01:02:01;31.13;;;11.82;;
37485;SDS011;23341;50.296;18.960;2023-02-28T01:07:05;28.52;;;10.88;;
37485;SDS011;23341;50.296;18.960;2023-02-28T01:12:10;20.67;;;11.10;;
37485;SDS011;23341;50.296;18.960;2023-02-28T01:17:15;26.27;;;11.40;;
37485;SDS011;23341;50.296;18.960;2023-02-28T01:22:20;24.90;;;10.88;;
37485;SDS011;23341;50.296;18.960;2023-02-28T01:27:24;29.40;;;12.85;;
37485;SDS011;23341;50.296;18.960;2023-02-28T01:32:30;27.08;;;12.45;;
37485;SDS011;23341;50.296;18.960;2023-02-28T01:37:34;22.60;;;11.27;;
37485;SDS011;23341;50.296;18.960;2023-02-28T01:42:39;30.42;;;12.85;;
37485;SDS011;23341;50.296;18.960;2023-02-28T01:47:44;28.75;;;11.27;;
37485;SDS011;23341;50.296;18.960;2023-02-28T01:52:51;29.33;;;12.50;;
37485;SDS011;23341;50.296;18.960;2023-02-28T01:57:58;28.90;;;11.60;;
37485;SDS011;23341;50.296;18.960;2023-02-28T02:03:08;26.73;;;13.10;;
37485;SDS011;23341;50.296;18.960;2023-02-28T02:08:17;25.52;;;12.63;;
37485;SDS011;23341;50.296;18.960;2023-02-28T02:13:38;22.35;;;11.02;;
37485;SDS011;23341;50.296;18.960;2023-02-28T02:19:00;20.45;;;11.57;;
37485;SDS011;23341;50.296;18.960;2023-02-28T02:30:17;24.25;;;10.30;;
37485;SDS011;23341;50.296;18.960;2023-02-28T02:35:40;17.25;;;9.35;;
37485;SDS011;23341;50.296;18.960;2023-02-28T02:40:59;20.23;;;9.68;;
37485;SDS011;23341;50.296;18.960;2023-02-28T02:46:10;19.60;;;10.52;;
37485;SDS011;23341;50.296;18.960;2023-02-28T02:51:21;25.88;;;11.32;;
37485;SDS011;23341;50.296;18.960;2023-02-28T02:56:28;22.52;;;11.30;;
37485;SDS011;23341;50.296;18.960;2023-02-28T03:01:36;21.92;;;11.77;;
37485;SDS011;23341;50.296;18.960;2023-02-28T03:06:44;21.92;;;11.23;;
37485;SDS011;23341;50.296;18.960;2023-02-28T03:11:49;21.23;;;10.02;;
37485;SDS011;23341;50.296;18.960;2023-02-28T03:16:59;17.25;;;8.52;;
37485;SDS011;23341;50.296;18.960;2023-02-28T03:28:08;19.75;;;10.15;;
37485;SDS011;23341;50.296;18.960;2023-02-28T03:33:18;22.50;;;11.25;;
37485;SDS011;23341;50.296;18.960;2023-02-28T03:38:29;20.77;;;10.50;;
37485;SDS011;23341;50.296;18.960;2023-02-28T03:43:38;19.52;;;9.77;;
37485;SDS011;23341;50.296;18.960;2023-02-28T03:53:58;28.08;;;13.73;;
37485;SDS011;23341;50.296;18.960;2023-02-28T03:59:10;29.00;;;11.95;;
37485;SDS011;23341;50.296;18.960;2023-02-28T04:04:18;26.92;;;13.35;;
37485;SDS011;23341;50.296;18.960;2023-02-28T04:09:24;23.52;;;12.60;;
37485;SDS011;23341;50.296;18.960;2023-02-28T04:14:29;26.88;;;12.82;;
37485;SDS011;23341;50.296;18.960;2023-02-28T04:19:33;31.80;;;13.32;;
37485;SDS011;23341;50.296;18.960;2023-02-28T04:24:40;31.63;;;13.13;;
37485;SDS011;23341;50.296;18.960;2023-02-28T04:29:45;36.15;;;17.95;;
37485;SDS011;23341;50.296;18.960;2023-02-28T04:34:49;32.97;;;16.85;;
37485;SDS011;23341;50.296;18.960;2023-02-28T04:39:55;34.03;;;16.05;;
37485;SDS011;23341;50.296;18.960;2023-02-28T04:45:00;28.58;;;15.07;;
37485;SDS011;23341;50.296;18.960;2023-02-28T04:50:05;32.15;;;13.90;;
37485;SDS011;23341;50.296;18.960;2023-02-28T04:55:11;27.10;;;13.23;;
37485;SDS011;23341;50.296;18.960;2023-02-28T05:00:16;28.58;;;14.10;;
37485;SDS011;23341;50.296;18.960;2023-02-28T05:05:21;23.48;;;13.18;;
37485;SDS011;23341;50.296;18.960;2023-02-28T05:10:27;32.00;;;14.52;;
37485;SDS011;23341;50.296;18.960;2023-02-28T05:15:32;31.90;;;14.77;;
37485;SDS011;23341;50.296;18.960;2023-02-28T05:20:37;30.25;;;15.45;;
37485;SDS011;23341;50.296;18.960;2023-02-28T05:25:43;35.55;;;14.80;;
37485;SDS011;23341;50.296;18.960;2023-02-28T05:30:47;35.17;;;15.05;;
37485;SDS011;23341;50.296;18.960;2023-02-28T05:35:51;39.78;;;16.80;;
37485;SDS011;23341;50.296;18.960;2023-02-28T05:40:57;39.85;;;19.33;;
37485;SDS011;23341;50.296;18.960;2023-02-28T05:46:03;57.60;;;21.92;;
37485;SDS011;23341;50.296;18.960;2023-02-28T05:51:08;73.28;;;27.58;;
37485;SDS011;23341;50.296;18.960;2023-02-28T05:56:14;58.97;;;21.65;;
37485;SDS011;23341;50.296;18.960;2023-02-28T06:01:20;69.72;;;25.98;;
37485;SDS011;23341;50.296;18.960;2023-02-28T06:06:33;70.38;;;27.10;;
37485;SDS011;23341;50.296;18.960;2023-02-28T06:11:42;297.70;;;88.75;;
37485;SDS011;23341;50.296;18.960;2023-02-28T06:16:46;153.50;;;48.33;;
37485;SDS011;23341;50.296;18.960;2023-02-28T06:21:51;119.65;;;39.85;;
37485;SDS011;23341;50.296;18.960;2023-02-28T06:26:57;77.72;;;27.35;;
37485;SDS011;23341;50.296;18.960;2023-02-28T06:32:07;129.18;;;42.45;;
37485;SDS011;23341;50.296;18.960;2023-02-28T06:37:12;98.88;;;33.95;;
37485;SDS011;23341;50.296;18.960;2023-02-28T06:42:17;227.38;;;66.47;;
37485;SDS011;23341;50.296;18.960;2023-02-28T06:47:22;179.93;;;49.63;;
37485;SDS011;23341;50.296;18.960;2023-02-28T06:52:27;59.90;;;22.70;;
37485;SDS011;23341;50.296;18.960;2023-02-28T06:57:33;51.05;;;21.05;;
37485;SDS011;23341;50.296;18.960;2023-02-28T07:02:38;94.68;;;32.85;;
37485;SDS011;23341;50.296;18.960;2023-02-28T07:07:42;245.68;;;86.40;;
37485;SDS011;23341;50.296;18.960;2023-02-28T07:12:50;217.07;;;68.13;;
37485;SDS011;23341;50.296;18.960;2023-02-28T07:17:55;117.18;;;39.40;;
37485;SDS011;23341;50.296;18.960;2023-02-28T07:22:59;174.73;;;57.85;;
37485;SDS011;23341;50.296;18.960;2023-02-28T07:28:06;183.25;;;60.78;;
37485;SDS011;23341;50.296;18.960;2023-02-28T07:33:10;82.75;;;31.15;;
37485;SDS011;23341;50.296;18.960;2023-02-28T07:38:14;84.55;;;31.13;;
37485;SDS011;23341;50.296;18.960;2023-02-28T07:43:20;35.05;;;16.63;;
37485;SDS011;23341;50.296;18.960;2023-02-28T07:48:24;55.63;;;21.42;;
37485;SDS011;23341;50.296;18.960;2023-02-28T07:53:29;110.20;;;39.95;;
37485;SDS011;23341;50.296;18.960;2023-02-28T07:58:35;245.82;;;81.57;;
37485;SDS011;23341;50.296;18.960;2023-02-28T08:03:40;189.38;;;64.72;;
37485;SDS011;23341;50.296;18.960;2023-02-28T08:08:45;278.77;;;93.22;;
37485;SDS011;23341;50.296;18.960;2023-02-28T08:13:50;113.97;;;40.63;;
37485;SDS011;23341;50.296;18.960;2023-02-28T08:18:55;40.60;;;19.23;;
37485;SDS011;23341;50.296;18.960;2023-02-28T08:23:59;82.22;;;30.20;;
37485;SDS011;23341;50.296;18.960;2023-02-28T08:29:05;39.97;;;18.27;;
37485;SDS011;23341;50.296;18.960;2023-02-28T08:34:10;38.08;;;16.10;;
37485;SDS011;23341;50.296;18.960;2023-02-28T08:39:16;108.28;;;43.35;;
37485;SDS011;23341;50.296;18.960;2023-02-28T08:44:23;42.53;;;18.20;;
37485;SDS011;23341;50.296;18.960;2023-02-28T08:49:28;64.03;;;24.55;;
37485;SDS011;23341;50.296;18.960;2023-02-28T08:54:32;65.80;;;27.33;;
37485;SDS011;23341;50.296;18.960;2023-02-28T08:59:38;18.77;;;11.70;;
37485;SDS011;23341;50.296;18.960;2023-02-28T09:04:42;14.57;;;10.35;;
37485;SDS011;23341;50.296;18.960;2023-02-28T09:09:47;29.02;;;13.80;;
37485;SDS011;23341;50.296;18.960;2023-02-28T09:14:59;17.67;;;11.15;;
37485;SDS011;23341;50.296;18.960;2023-02-28T09:20:04;24.65;;;12.65;;
37485;SDS011;23341;50.296;18.960;2023-02-28T09:25:09;46.63;;;20.45;;
37485;SDS011;23341;50.296;18.960;2023-02-28T09:30:15;21.85;;;12.05;;
37485;SDS011;23341;50.296;18.960;2023-02-28T09:35:19;22.05;;;11.30;;
37485;SDS011;23341;50.296;18.960;2023-02-28T09:40:25;15.45;;;10.00;;
37485;SDS011;23341;50.296;18.960;2023-02-28T09:45:32;18.95;;;11.52;;
37485;SDS011;23341;50.296;18.960;2023-02-28T09:50:40;19.85;;;11.88;;
37485;SDS011;23341;50.296;18.960;2023-02-28T09:55:50;17.40;;;11.65;;
37485;SDS011;23341;50.296;18.960;2023-02-28T10:01:00;22.30;;;11.90;;
37485;SDS011;23341;50.296;18.960;2023-02-28T10:06:11;17.15;;;11.80;;
37485;SDS011;23341;50.296;18.960;2023-02-28T10:11:20;21.15;;;12.18;;
37485;SDS011;23341;50.296;18.960;2023-02-28T10:16:29;21.63;;;10.13;;
37485;SDS011;23341;50.296;18.960;2023-02-28T10:21:38;14.30;;;9.48;;
37485;SDS011;23341;50.296;18.960;2023-02-28T10:26:47;16.20;;;11.55;;
37485;SDS011;23341;50.296;18.960;2023-02-28T10:31:54;18.73;;;9.88;;
37485;SDS011;23341;50.296;18.960;2023-02-28T10:36:58;17.02;;;10.48;;
37485;SDS011;23341;50.296;18.960;2023-02-28T10:42:20;23.02;;;11.48;;
37485;SDS011;23341;50.296;18.960;2023-02-28T10:47:29;14.93;;;9.90;;
37485;SDS011;23341;50.296;18.960;2023-02-28T10:52:36;22.42;;;11.10;;
37485;SDS011;23341;50.296;18.960;2023-02-28T10:57:43;35.05;;;13.15;;
37485;SDS011;23341;50.296;18.960;2023-02-28T11:02:48;13.48;;;9.13;;
37485;SDS011;23341;50.296;18.960;2023-02-28T11:07:54;14.73;;;9.77;;
37485;SDS011;23341;50.296;18.960;2023-02-28T11:27:20;54.60;;;24.83;;
37485;SDS011;23341;50.296;18.960;2023-02-28T11:32:29;21.50;;;13.53;;
37485;SDS011;23341;50.296;18.960;2023-02-28T11:37:35;21.98;;;13.23;;
37485;SDS011;23341;50.296;18.960;2023-02-28T11:48:09;33.65;;;17.33;;
37485;SDS011;23341;50.296;18.960;2023-02-28T11:53:35;36.13;;;18.15;;
37485;SDS011;23341;50.296;18.960;2023-02-28T11:58:51;32.30;;;16.08;;
37485;SDS011;23341;50.296;18.960;2023-02-28T12:04:17;20.95;;;14.85;;
37485;SDS011;23341;50.296;18.960;2023-02-28T12:09:40;27.77;;;16.63;;
37485;SDS011;23341;50.296;18.960;2023-02-28T12:15:04;29.05;;;14.63;;
37485;SDS011;23341;50.296;18.960;2023-02-28T12:20:24;28.70;;;15.13;;
37485;SDS011;23341;50.296;18.960;2023-02-28T12:25:48;38.25;;;13.88;;
37485;SDS011;23341;50.296;18.960;2023-02-28T12:31:00;33.40;;;16.30;;
37485;SDS011;23341;50.296;18.960;2023-02-28T12:36:09;48.03;;;30.90;;
37485;SDS011;23341;50.296;18.960;2023-02-28T12:41:21;35.08;;;17.02;;
37485;SDS011;23341;50.296;18.960;2023-02-28T12:46:34;37.20;;;19.10;;
37485;SDS011;23341;50.296;18.960;2023-02-28T12:51:42;20.73;;;12.40;;
37485;SDS011;23341;50.296;18.960;2023-02-28T12:56:50;42.58;;;19.17;;
37485;SDS011;23341;50.296;18.960;2023-02-28T13:13:20;30.48;;;13.90;;
37485;SDS011;23341;50.296;18.960;2023-02-28T13:18:32;22.40;;;14.15;;
37485;SDS011;23341;50.296;18.960;2023-02-28T13:23:40;50.60;;;23.88;;
37485;SDS011;23341;50.296;18.960;2023-02-28T13:29:01;20.98;;;12.90;;
37485;SDS011;23341;50.296;18.960;2023-02-28T13:34:15;18.27;;;10.95;;
37485;SDS011;23341;50.296;18.960;2023-02-28T13:50:32;12.57;;;9.75;;
37485;SDS011;23341;50.296;18.960;2023-02-28T13:55:42;26.80;;;15.38;;
37485;SDS011;23341;50.296;18.960;2023-02-28T14:00:57;25.42;;;14.73;;
37485;SDS011;23341;50.296;18.960;2023-02-28T14:06:22;30.20;;;16.52;;
37485;SDS011;23341;50.296;18.960;2023-02-28T14:11:31;25.57;;;13.53;;
37485;SDS011;23341;50.296;18.960;2023-02-28T14:16:39;152.95;;;69.65;;
37485;SDS011;23341;50.296;18.960;2023-02-28T14:21:52;49.20;;;25.10;;
37485;SDS011;23341;50.296;18.960;2023-02-28T14:27:15;33.25;;;16.63;;
37485;SDS011;23341;50.296;18.960;2023-02-28T14:32:41;25.17;;;14.00;;
37485;SDS011;23341;50.296;18.960;2023-02-28T14:37:52;27.27;;;16.23;;
37485;SDS011;23341;50.296;18.960;2023-02-28T14:42:58;39.05;;;19.02;;
37485;SDS011;23341;50.296;18.960;2023-02-28T14:48:03;32.70;;;17.08;;
37485;SDS011;23341;50.296;18.960;2023-02-28T14:53:15;31.03;;;18.37;;
37485;SDS011;23341;50.296;18.960;2023-02-28T14:58:25;27.00;;;14.98;;
37485;SDS011;23341;50.296;18.960;2023-02-28T15:03:31;25.52;;;14.73;;
37485;SDS011;23341;50.296;18.960;2023-02-28T15:08:38;28.80;;;14.10;;
37485;SDS011;23341;50.296;18.960;2023-02-28T15:13:45;25.67;;;14.48;;
37485;SDS011;23341;50.296;18.960;2023-02-28T15:18:52;30.15;;;16.58;;
37485;SDS011;23341;50.296;18.960;2023-02-28T15:24:00;29.83;;;15.70;;
37485;SDS011;23341;50.296;18.960;2023-02-28T15:29:11;28.65;;;16.25;;
37485;SDS011;23341;50.296;18.960;2023-02-28T15:34:19;27.55;;;15.23;;
37485;SDS011;23341;50.296;18.960;2023-02-28T15:39:31;29.75;;;16.13;;
37485;SDS011;23341;50.296;18.960;2023-02-28T15:44:45;28.50;;;15.52;;
37485;SDS011;23341;50.296;18.960;2023-02-28T15:49:51;29.92;;;14.50;;
37485;SDS011;23341;50.296;18.960;2023-02-28T15:54:58;23.85;;;13.70;;
37485;SDS011;23341;50.296;18.960;2023-02-28T16:00:11;25.52;;;14.43;;
37485;SDS011;23341;50.296;18.960;2023-02-28T16:05:22;48.45;;;20.48;;
37485;SDS011;23341;50.296;18.960;2023-02-28T16:10:34;50.17;;;24.30;;
37485;SDS011;23341;50.296;18.960;2023-02-28T16:15:39;41.45;;;20.55;;
37485;SDS011;23341;50.296;18.960;2023-02-28T16:20:46;44.25;;;21.15;;
37485;SDS011;23341;50.296;18.960;2023-02-28T16:25:52;58.05;;;24.80;;
37485;SDS011;23341;50.296;18.960;2023-02-28T16:30:57;65.03;;;25.52;;
37485;SDS011;23341;50.296;18.960;2023-02-28T16:36:05;87.65;;;34.72;;
37485;SDS011;23341;50.296;18.960;2023-02-28T16:41:13;87.55;;;35.00;;
37485;SDS011;23341;50.296;18.960;2023-02-28T16:46:21;74.63;;;32.33;;
37485;SDS011;23341;50.296;18.960;2023-02-28T16:51:25;74.55;;;32.85;;
37485;SDS011;23341;50.296;18.960;2023-02-28T16:56:32;214.95;;;75.22;;
37485;SDS011;23341;50.296;18.960;2023-02-28T17:01:37;77.55;;;31.40;;
37485;SDS011;23341;50.296;18.960;2023-02-28T17:06:42;66.97;;;26.27;;
37485;SDS011;23341;50.296;18.960;2023-02-28T17:11:48;58.78;;;27.15;;
37485;SDS011;23341;50.296;18.960;2023-02-28T17:16:52;45.80;;;23.02;;
37485;SDS011;23341;50.296;18.960;2023-02-28T17:21:57;54.20;;;22.00;;
37485;SDS011;23341;50.296;18.960;2023-02-28T17:27:03;93.20;;;42.17;;
37485;SDS011;23341;50.296;18.960;2023-02-28T17:32:07;109.18;;;49.30;;
37485;SDS011;23341;50.296;18.960;2023-02-28T17:37:19;123.85;;;57.67;;
37485;SDS011;23341;50.296;18.960;2023-02-28T17:42:25;49.28;;;31.27;;
37485;SDS011;23341;50.296;18.960;2023-02-28T17:47:30;40.50;;;22.70;;
37485;SDS011;23341;50.296;18.960;2023-02-28T17:52:34;62.70;;;28.08;;
37485;SDS011;23341;50.296;18.960;2023-02-28T17:57:40;35.00;;;20.77;;
37485;SDS011;23341;50.296;18.960;2023-02-28T18:02:45;35.70;;;20.88;;
37485;SDS011;23341;50.296;18.960;2023-02-28T18:07:50;47.83;;;24.15;;
37485;SDS011;23341;50.296;18.960;2023-02-28T18:12:56;31.77;;;19.10;;
37485;SDS011;23341;50.296;18.960;2023-02-28T18:18:00;51.33;;;25.90;;
37485;SDS011;23341;50.296;18.960;2023-02-28T18:23:07;65.50;;;37.47;;
37485;SDS011;23341;50.296;18.960;2023-02-28T18:28:13;57.25;;;29.38;;
37485;SDS011;23341;50.296;18.960;2023-02-28T18:33:17;49.90;;;26.05;;
37485;SDS011;23341;50.296;18.960;2023-02-28T18:38:23;35.95;;;17.35;;
37485;SDS011;23341;50.296;18.960;2023-02-28T18:43:31;40.03;;;20.20;;
37485;SDS011;23341;50.296;18.960;2023-02-28T18:48:36;34.33;;;17.73;;
37485;SDS011;23341;50.296;18.960;2023-02-28T18:53:41;35.78;;;18.33;;
37485;SDS011;23341;50.296;18.960;2023-02-28T18:58:47;32.95;;;18.60;;
37485;SDS011;23341;50.296;18.960;2023-02-28T19:03:52;50.45;;;22.20;;
37485;SDS011;23341;50.296;18.960;2023-02-28T19:08:57;63.00;;;26.45;;
37485;SDS011;23341;50.296;18.960;2023-02-28T19:14:04;197.93;;;60.65;;
37485;SDS011;23341;50.296;18.960;2023-02-28T19:19:11;47.40;;;23.60;;
37485;SDS011;23341;50.296;18.960;2023-02-28T19:24:15;40.38;;;19.90;;
37485;SDS011;23341;50.296;18.960;2023-02-28T19:29:22;42.22;;;19.85;;
37485;SDS011;23341;50.296;18.960;2023-02-28T19:34:27;45.28;;;22.25;;
37485;SDS011;23341;50.296;18.960;2023-02-28T19:39:31;50.10;;;23.80;;
37485;SDS011;23341;50.296;18.960;2023-02-28T19:44:44;48.05;;;22.75;;
37485;SDS011;23341;50.296;18.960;2023-02-28T19:49:48;54.53;;;29.05;;
37485;SDS011;23341;50.296;18.960;2023-02-28T19:54:56;61.22;;;29.40;;
37485;SDS011;23341;50.296;18.960;2023-02-28T20:00:02;72.43;;;34.08;;
37485;SDS011;23341;50.296;18.960;2023-02-28T20:05:13;73.78;;;34.55;;
37485;SDS011;23341;50.296;18.960;2023-02-28T20:10:18;79.32;;;36.53;;
37485;SDS011;23341;50.296;18.960;2023-02-28T20:15:24;85.53;;;38.33;;
37485;SDS011;23341;50.296;18.960;2023-02-28T20:20:30;89.72;;;42.05;;
37485;SDS011;23341;50.296;18.960;2023-02-28T20:25:38;93.72;;;46.72;;
37485;SDS011;23341;50.296;18.960;2023-02-28T20:30:44;112.43;;;51.95;;
37485;SDS011;23341;50.296;18.960;2023-02-28T20:35:56;111.47;;;54.37;;
37485;SDS011;23341;50.296;18.960;2023-02-28T20:41:01;109.57;;;51.63;;
37485;SDS011;23341;50.296;18.960;2023-02-28T20:46:08;116.43;;;53.75;;
37485;SDS011;23341;50.296;18.960;2023-02-28T20:51:14;145.48;;;64.15;;
37485;SDS011;23341;50.296;18.960;2023-02-28T20:56:19;135.43;;;61.75;;
37485;SDS011;23341;50.296;18.960;2023-02-28T21:01:27;136.93;;;64.63;;
37485;SDS011;23341;50.296;18.960;2023-02-28T21:06:33;153.82;;;67.22;;
37485;SDS011;23341;50.296;18.960;2023-02-28T21:11:40;174.73;;;77.13;;
37485;SDS011;23341;50.296;18.960;2023-02-28T21:16:46;175.10;;;74.85;;
37485;SDS011;23341;50.296;18.960;2023-02-28T21:21:52;174.80;;;75.10;;
37485;SDS011;23341;50.296;18.960;2023-02-28T21:26:57;200.48;;;78.97;;
37485;SDS011;23341;50.296;18.960;2023-02-28T21:32:05;175.73;;;70.15;;
37485;SDS011;23341;50.296;18.960;2023-02-28T21:37:09;157.13;;;66.47;;
37485;SDS011;23341;50.296;18.960;2023-02-28T21:42:14;175.18;;;75.03;;
37485;SDS011;23341;50.296;18.960;2023-02-28T21:47:20;165.30;;;73.57;;
37485;SDS011;23341;50.296;18.960;2023-02-28T21:52:24;164.27;;;71.22;;
37485;SDS011;23341;50.296;18.960;2023-02-28T21:57:29;170.77;;;69.47;;
37485;SDS011;23341;50.296;18.960;2023-02-28T22:02:35;168.05;;;69.65;;
37485;SDS011;23341;50.296;18.960;2023-02-28T22:07:40;181.60;;;75.47;;
37485;SDS011;23341;50.296;18.960;2023-02-28T22:12:44;179.80;;;74.35;;
37485;SDS011;23341;50.296;18.960;2023-02-28T22:17:50;176.07;;;75.65;;
37485;SDS011;23341;50.296;18.960;2023-02-28T22:22:54;164.90;;;76.85;;
37485;SDS011;23341;50.296;18.960;2023-02-28T22:27:58;179.63;;;75.95;;
37485;SDS011;23341;50.296;18.960;2023-02-28T22:33:04;203.57;;;85.50;;
37485;SDS011;23341;50.296;18.960;2023-02-28T22:38:08;196.10;;;84.78;;
37485;SDS011;23341;50.296;18.960;2023-02-28T22:43:13;217.10;;;87.60;;
37485;SDS011;23341;50.296;18.960;2023-02-28T22:48:18;190.57;;;79.90;;
37485;SDS011;23341;50.296;18.960;2023-02-28T22:53:23;197.70;;;86.50;;
37485;SDS011;23341;50.296;18.960;2023-02-28T22:58:27;191.25;;;84.15;;
37485;SDS011;23341;50.296;18.960;2023-02-28T23:03:34;229.70;;;94.32;;
37485;SDS011;23341;50.296;18.960;2023-02-28T23:08:38;196.60;;;77.05;;
37485;SDS011;23341;50.296;18.960;2023-02-28T23:13:43;187.65;;;77.63;;
37485;SDS011;23341;50.296;18.960;2023-02-28T23:19:02;174.77;;;72.53;;
37485;SDS011;23341;50.296;18.960;2023-02-28T23:24:08;185.30;;;74.30;;
37485;SDS011;23341;50.296;18.960;2023-02-28T23:29:14;187.70;;;77.13;;
37485;SDS011;23341;50.296;18.960;2023-02-28T23:34:21;182.80;;;74.53;;
37485;SDS011;23341;50.296;18.960;2023-02-28T23:39:28;165.30;;;70.07;;
37485;SDS011;23341;50.296;18.960;2023-02-28T23:44:33;148.15;;;68.13;;
37485;SDS011;23341;50.296;18.960;2023-02-28T23:49:38;152.82;;;61.53;;
37485;SDS011;23341;50.296;18.960;2023-02-28T23:54:43;148.57;;;59.13;;
37485;SDS011;23341;50.296;18.960;2023-02-28T23:59:48;146.82;;;60.60;;
